Time;durP1;ratioP1;P1;durP2;ratioP2;P2;SDS_P1;SDS_P2;PMS_P1;PMS_P2;Temp;Humidity;BMP_temperature;BMP_pressure;BME280_temperature;BME280_humidity;BME280_pressure;Samples;Min_cycle;Max_cycle;Signal;HPM_P1;HPM_P2
2021/05/04 00:00:51;;;;;;;;;4.25;4.25;;;;;12.63;59.07;101100.28;4902347;29;10214;-78
2021/05/04 00:03:47;;;;;;;;;3.00;3.00;;;;;12.52;57.91;101103.44;4902272;29;10290;-77
2021/05/04 00:06:43;;;;;;;;;4.00;4.00;;;;;12.19;57.91;101103.25;4902404;29;10236;-77
2021/05/04 00:09:39;;;;;;;;;4.00;4.00;;;;;12.26;58.19;101102.72;4889770;29;10287;-78
2021/05/04 00:12:35;;;;;;;;;6.00;6.00;;;;;12.29;59.29;101107.63;4889776;29;10504;-77
2021/05/04 00:15:31;;;;;;;;;6.75;6.75;;;;;12.23;59.85;101100.63;4896591;29;10225;-78
2021/05/04 00:18:27;;;;;;;;;3.25;3.25;;;;;12.04;57.90;101105.72;4879968;29;10205;-77
2021/05/04 00:20:56;;;;;;;;;4.00;4.00;;;;;11.89;56.29;101105.13;4880691;29;10389;-76
2021/05/04 00:23:52;;;;;;;;;3.00;3.00;;;;;12.03;56.47;101112.41;4880651;29;10425;-76
2021/05/04 00:26:48;;;;;;;;;3.00;3.00;;;;;11.95;56.73;101102.97;4880926;29;10362;-77
2021/05/04 00:29:43;;;;;;;;;3.50;3.50;;;;;11.87;57.19;101112.94;4868225;29;10438;-77
2021/05/04 00:32:39;;;;;;;;;4.00;4.00;;;;;11.96;57.97;101113.78;4880185;29;10446;-77
2021/05/04 00:35:27;;;;;;;;;3.00;3.00;;;;;11.92;56.19;101111.97;4881151;29;10534;-77
2021/05/04 00:38:16;;;;;;;;;4.75;3.00;;;;;12.00;55.54;101108.38;4880219;29;10538;-76
2021/05/04 00:41:12;;;;;;;;;4.00;4.00;;;;;12.09;56.09;101102.78;4880659;29;10422;-77
2021/05/04 00:44:07;;;;;;;;;3.50;3.50;;;;;11.73;54.56;101103.16;4879853;29;10505;-77
2021/05/04 00:47:03;;;;;;;;;3.25;3.25;;;;;11.59;54.34;101103.38;4879994;29;10481;-76
2021/05/04 00:49:59;;;;;;;;;3.00;3.00;;;;;11.76;54.68;101100.56;4879931;29;10640;-75
2021/05/04 00:52:54;;;;;;;;;4.00;4.00;;;;;11.52;54.30;101105.81;4867496;29;10425;-78
2021/05/04 00:55:51;;;;;;;;;4.00;4.00;;;;;11.45;54.62;101108.25;4879838;29;10592;-76
2021/05/04 00:58:50;;;;;;;;;4.00;4.00;;;;;11.56;56.39;101102.03;4879905;29;10516;-76
2021/05/04 01:01:46;;;;;;;;;3.00;3.00;;;;;11.25;56.61;101107.75;4879853;29;10598;-77
2021/05/04 01:04:43;;;;;;;;;3.00;3.00;;;;;11.30;55.51;101104.84;4888784;29;10630;-77
2021/05/04 01:07:39;;;;;;;;;2.75;2.75;;;;;11.31;56.45;101102.88;4885871;29;10575;-77
2021/05/04 01:10:08;;;;;;;;;3.75;3.75;;;;;11.34;56.83;101114.09;4891313;29;10510;-77
2021/05/04 01:13:03;;;;;;;;;2.25;2.25;;;;;11.39;56.25;101122.25;4917307;29;10586;-77
2021/05/04 01:16:00;;;;;;;;;2.75;2.75;;;;;11.36;57.45;101117.38;4917286;29;11517;-78
2021/05/04 01:18:55;;;;;;;;;4.00;4.00;;;;;11.32;56.95;101116.41;4904449;29;10595;-77
2021/05/04 01:21:52;;;;;;;;;2.00;2.00;;;;;11.18;56.87;101124.03;4904598;29;10504;-77
2021/05/04 01:24:48;;;;;;;;;4.00;4.00;;;;;11.13;56.41;101125.03;4917112;29;10581;-77
2021/05/04 01:27:43;;;;;;;;;3.25;3.25;;;;;11.24;58.02;101133.00;4904235;29;10683;-77
2021/05/04 01:30:39;;;;;;;;;3.00;3.00;;;;;11.28;57.45;101134.00;4916687;29;10755;-77
2021/05/04 01:33:34;;;;;;;;;4.00;4.00;;;;;11.35;56.61;101142.63;4904119;29;10575;-78
2021/05/04 01:36:30;;;;;;;;;2.50;2.50;;;;;11.38;58.21;101137.25;4914580;29;10771;-77
2021/05/04 01:38:58;;;;;;;;;3.00;3.00;;;;;11.38;57.69;101137.25;4882500;29;11243;-77
2021/05/04 01:41:53;;;;;;;;;4.50;4.50;;;;;11.22;57.65;101138.88;4885442;29;10555;-77
2021/05/04 01:44:49;;;;;;;;;4.00;4.00;;;;;11.21;57.83;101140.03;4897837;29;10498;-78
2021/05/04 01:47:45;;;;;;;;;4.00;4.00;;;;;11.23;57.66;101150.75;4885033;29;10669;-77
2021/05/04 01:50:40;;;;;;;;;5.50;5.50;;;;;11.13;57.87;101149.13;4897799;29;10557;-78
2021/05/04 01:53:36;;;;;;;;;4.00;4.00;;;;;11.14;57.13;101143.25;4897695;29;10740;-77
2021/05/04 01:56:31;;;;;;;;;7.00;7.00;;;;;11.18;57.11;101159.22;4897688;29;11371;-77
2021/05/04 01:59:28;;;;;;;;;4.00;4.00;;;;;11.04;55.30;101160.19;4912893;29;10746;-77
2021/05/04 02:02:23;;;;;;;;;4.00;4.00;;;;;11.04;54.34;101167.66;4927792;29;10596;-77
2021/05/04 02:05:19;;;;;;;;;4.75;4.75;;;;;10.96;54.59;101169.25;4902531;29;10616;-77
2021/05/04 02:08:15;;;;;;;;;4.50;4.50;;;;;11.16;55.53;101172.56;4878343;29;10606;-77
2021/05/04 02:11:10;;;;;;;;;3.50;3.50;;;;;10.96;55.18;101183.09;4879345;29;10751;-78
2021/05/04 02:14:07;;;;;;;;;2.75;2.75;;;;;10.91;54.57;101177.72;4878469;29;10603;-77
2021/05/04 02:17:02;;;;;;;;;3.75;3.75;;;;;10.97;55.04;101181.19;4878293;29;10511;-77
2021/05/04 02:19:58;;;;;;;;;3.25;3.25;;;;;10.93;55.30;101182.94;4878522;29;10485;-77
2021/05/04 02:22:25;;;;;;;;;4.00;4.00;;;;;10.80;56.41;101185.50;4879444;29;10817;-78
2021/05/04 02:25:21;;;;;;;;;4.50;4.50;;;;;10.84;55.84;101183.72;4878345;29;10875;-78
2021/05/04 02:28:16;;;;;;;;;6.00;6.00;;;;;10.75;55.72;101191.19;4877519;29;10724;-78
2021/05/04 02:30:47;;;;;;;;;3.00;3.00;;;;;10.65;55.90;101194.22;4879860;29;10738;-78
2021/05/04 02:33:43;;;;;;;;;4.00;4.00;;;;;10.73;55.41;101207.28;4866362;29;10748;-78
2021/05/04 02:36:39;;;;;;;;;4.50;4.50;;;;;10.70;55.65;101205.16;4878174;29;10644;-78
2021/05/04 02:39:09;;;;;;;;;4.25;4.00;;;;;10.66;57.30;101215.25;4862754;29;10664;-78
2021/05/04 02:42:06;;;;;;;;;5.25;5.25;;;;;10.66;57.13;101218.00;4878254;29;10735;-78
2021/05/04 02:45:02;;;;;;;;;4.00;4.00;;;;;10.73;58.42;101226.63;4878425;29;10897;-78
2021/05/04 02:47:58;;;;;;;;;3.75;3.75;;;;;10.60;55.80;101235.88;4888201;29;10989;-78
2021/05/04 02:50:25;;;;;;;;;2.25;2.00;;;;;10.63;56.53;101240.75;4883534;29;11009;-77
2021/05/04 02:53:20;;;;;;;;;3.50;3.50;;;;;10.72;57.79;101249.09;4883624;29;10803;-77
2021/05/04 02:56:16;;;;;;;;;4.00;4.00;;;;;10.57;56.47;101245.59;4884217;29;10828;-77
2021/05/04 02:58:45;;;;;;;;;4.00;4.00;;;;;10.56;56.03;101251.44;4880943;29;10770;-76
2021/05/04 03:01:12;;;;;;;;;3.00;3.00;;;;;10.62;55.97;101263.22;4897395;29;10673;-77
2021/05/04 03:04:07;;;;;;;;;4.50;4.50;;;;;10.57;55.57;101264.97;4896407;29;11626;-77
2021/05/04 03:06:41;;;;;;;;;2.50;2.50;;;;;10.48;56.81;101269.63;4867281;29;10884;-80
2021/05/04 03:09:36;;;;;;;;;5.00;5.00;;;;;10.56;56.79;101270.81;4877932;29;10821;-76
2021/05/04 03:12:32;;;;;;;;;3.75;3.75;;;;;10.49;56.01;101273.22;4865212;29;11001;-78
2021/05/04 03:15:28;;;;;;;;;3.00;3.00;;;;;10.43;56.29;101286.38;4877847;29;11009;-76
2021/05/04 03:18:24;;;;;;;;;3.50;3.50;;;;;10.68;55.78;101282.13;4877559;29;10906;-78
2021/05/04 03:20:52;;;;;;;;;6.00;6.00;;;;;10.70;55.25;101288.16;4862641;29;11035;-77
2021/05/04 03:23:48;;;;;;;;;5.50;5.50;;;;;10.61;54.94;101295.59;4877563;29;11723;-77
2021/05/04 03:26:16;;;;;;;;;3.25;3.25;;;;;10.73;57.61;101297.75;4878990;29;10891;-77
2021/05/04 03:29:11;;;;;;;;;4.00;4.00;;;;;10.68;55.73;101300.66;4877691;29;10940;-77
2021/05/04 03:32:07;;;;;;;;;5.25;5.25;;;;;10.73;55.91;101306.88;4877933;29;10962;-76
2021/05/04 03:35:03;;;;;;;;;4.50;4.50;;;;;10.64;52.77;101311.53;4877599;29;11063;-77
2021/05/04 03:38:00;;;;;;;;;7.25;7.25;;;;;10.79;54.95;101307.56;4885108;29;10890;-78
2021/05/04 03:40:55;;;;;;;;;3.00;3.00;;;;;10.81;54.87;101308.91;4896273;29;11086;-77
2021/05/04 03:43:51;;;;;;;;;4.50;4.50;;;;;10.94;54.03;101317.41;4877778;29;10944;-77
2021/05/04 03:46:47;;;;;;;;;3.00;3.00;;;;;10.97;52.91;101316.78;4877578;29;10763;-76
2021/05/04 03:49:42;;;;;;;;;3.00;3.00;;;;;11.13;57.56;101320.75;4877552;29;10747;-76
2021/05/04 03:52:38;;;;;;;;;5.25;5.25;;;;;11.12;52.81;101330.22;4879858;29;10761;-77
2021/05/04 03:55:34;;;;;;;;;3.75;3.75;;;;;11.26;54.31;101330.06;4881370;29;10812;-78
2021/05/04 03:58:29;;;;;;;;;3.50;3.50;;;;;11.17;52.51;101327.28;4880807;29;10919;-77
2021/05/04 04:01:25;;;;;;;;;6.00;6.00;;;;;11.28;56.92;101323.09;4880784;29;10826;-77
2021/05/04 04:04:20;;;;;;;;;4.25;4.25;;;;;11.13;52.25;101327.13;4886985;29;11653;-78
2021/05/04 04:07:31;;;;;;;;;4.00;4.00;;;;;11.29;53.59;101330.28;4899511;29;10560;-77
2021/05/04 04:09:58;;;;;;;;;5.50;5.50;;;;;11.37;52.82;101335.03;4900638;29;10823;-77
2021/05/04 04:12:55;;;;;;;;;2.00;2.00;;;;;11.46;51.56;101337.00;4886811;29;10570;-77
2021/05/04 04:15:50;;;;;;;;;4.75;4.75;;;;;11.45;51.97;101341.72;4899427;29;10495;-77
2021/05/04 04:18:46;;;;;;;;;4.00;4.00;;;;;11.56;53.07;101348.59;4914645;29;10736;-77
2021/05/04 04:21:13;;;;;;;;;4.00;4.00;;;;;11.64;53.00;101344.22;4919318;29;11341;-78
2021/05/04 04:24:09;;;;;;;;;6.50;6.50;;;;;11.84;54.23;101351.16;4918207;29;10498;-77
2021/05/04 04:27:04;;;;;;;;;5.00;5.00;;;;;11.80;52.01;101359.28;4918242;29;10553;-77
2021/05/04 04:30:01;;;;;;;;;4.00;4.00;;;;;11.79;52.38;101354.03;4918038;29;10503;-78
2021/05/04 04:32:56;;;;;;;;;3.50;3.50;;;;;11.86;52.15;101358.00;4917742;29;11228;-77
2021/05/04 04:35:52;;;;;;;;;2.00;2.00;;;;;11.94;51.81;101359.16;4904529;29;10364;-77
2021/05/04 04:38:48;;;;;;;;;4.00;4.00;;;;;11.83;49.97;101355.06;4899783;29;10353;-77
2021/05/04 04:41:43;;;;;;;;;2.75;2.75;;;;;11.67;50.32;101352.72;4901686;29;10632;-76
2021/05/04 04:44:39;;;;;;;;;4.00;4.00;;;;;12.09;51.92;101353.13;4905187;29;10358;-76
2021/05/04 04:47:35;;;;;;;;;4.00;4.00;;;;;12.18;52.42;101353.13;4904948;29;10343;-78
2021/05/04 04:50:30;;;;;;;;;4.00;4.00;;;;;12.02;50.35;101344.47;4917682;29;10323;-77
2021/05/04 04:53:26;;;;;;;;;4.00;4.00;;;;;12.32;52.56;101350.19;4917562;29;11220;-78
2021/05/04 04:56:22;;;;;;;;;5.00;5.00;;;;;12.39;51.75;101350.53;4917557;29;10433;-77
2021/05/04 04:59:18;;;;;;;;;4.50;4.50;;;;;12.41;50.41;101345.47;4917479;29;10276;-78
2021/05/04 05:01:53;;;;;;;;;5.50;5.50;;;;;12.56;52.59;101353.28;4917205;29;10467;-77
2021/05/04 05:04:49;;;;;;;;;5.00;5.00;;;;;12.68;52.17;101355.41;4917130;29;10147;-77
2021/05/04 05:07:16;;;;;;;;;4.25;4.25;;;;;12.94;53.89;101356.16;4917258;29;10305;-76
2021/05/04 05:10:12;;;;;;;;;5.00;5.00;;;;;12.81;50.73;101351.63;4899011;29;10058;-77
2021/05/04 05:13:08;;;;;;;;;5.00;5.00;;;;;12.96;52.59;101348.31;4898426;29;10185;-78
2021/05/04 05:15:39;;;;;;;;;3.25;3.25;;;;;13.00;53.64;101343.72;4899820;29;10225;-79
2021/05/04 05:18:35;;;;;;;;;5.00;5.00;;;;;13.00;51.44;101348.47;4914222;29;10215;-78
2021/05/04 05:21:32;;;;;;;;;7.00;7.00;;;;;12.98;51.29;101357.13;4898440;29;10144;-78
2021/05/04 05:24:28;;;;;;;;;4.00;4.00;;;;;13.20;51.92;101358.91;4898185;29;10262;-78
2021/05/04 05:27:25;;;;;;;;;3.00;3.00;;;;;13.30;49.47;101354.94;4917563;29;10224;-77
2021/05/04 05:30:21;;;;;;;;;5.00;5.00;;;;;13.00;47.80;101365.13;4936078;29;10044;-76
2021/05/04 05:33:17;;;;;;;;;4.50;4.50;;;;;13.30;48.98;101364.06;4914036;29;10751;-78
2021/05/04 05:36:17;;;;;;;;;4.50;4.50;;;;;13.33;47.57;101359.81;4917693;29;9956;-78
2021/05/04 05:39:12;;;;;;;;;4.25;4.25;;;;;13.06;46.11;101364.63;4916896;29;9829;-77
2021/05/04 05:42:10;;;;;;;;;6.50;6.50;;;;;13.67;49.96;101369.16;4907384;29;9964;-78
2021/05/04 05:44:37;;;;;;;;;4.50;4.50;;;;;13.85;50.23;101371.47;4907182;29;10045;-76
2021/05/04 05:47:33;;;;;;;;;6.50;6.50;;;;;13.96;55.86;101366.34;4916776;29;10614;-78
2021/05/04 05:50:29;;;;;;;;;4.00;4.00;;;;;13.98;50.74;101366.81;4916602;29;9803;-78
2021/05/04 05:53:24;;;;;;;;;4.75;4.75;;;;;13.95;52.02;101359.13;4916526;29;9705;-77
2021/05/04 05:56:20;;;;;;;;;4.50;4.50;;;;;14.39;49.23;101367.97;4903280;29;9788;-77
2021/05/04 05:59:16;;;;;;;;;3.50;3.50;;;;;14.71;48.39;101371.97;4916242;29;9582;-77
2021/05/04 06:02:12;;;;;;;;;10.75;10.50;;;;;14.87;48.77;101369.34;4903421;29;9549;-76
2021/05/04 06:04:55;;;;;;;;;4.33;4.33;;;;;14.58;45.06;101375.88;4883489;29;9929;-77
2021/05/04 06:07:50;;;;;;;;;3.00;3.00;;;;;14.86;51.19;101373.31;4885590;29;9504;-78
2021/05/04 06:10:47;;;;;;;;;5.00;5.00;;;;;14.68;45.03;101381.03;4884827;29;9204;-77
2021/05/04 06:13:44;;;;;;;;;3.00;3.00;;;;;14.79;46.51;101378.63;4897356;29;9309;-77
2021/05/04 06:16:39;;;;;;;;;7.00;6.67;;;;;15.08;43.27;101372.91;4896478;29;9193;-77
2021/05/04 06:19:35;;;;;;;;;5.67;5.00;;;;;15.37;46.50;101368.31;4915860;29;9363;-77
2021/05/04 06:22:30;;;;;;;;;2.00;2.00;;;;;15.46;44.10;101371.78;4884490;29;9315;-77
2021/05/04 06:25:26;;;;;;;;;4.33;4.33;;;;;15.26;43.12;101365.19;4897778;29;9132;-77
2021/05/04 06:28:22;;;;;;;;;3.33;3.33;;;;;14.71;41.55;101374.75;4896686;29;9295;-78
2021/05/04 06:31:20;;;;;;;;;3.00;3.00;;;;;14.97;44.63;101360.59;4884776;29;9117;-78
2021/05/04 06:33:56;;;;;;;;;4.00;3.67;;;;;15.36;47.24;101375.84;4882713;29;9289;-78
2021/05/04 06:36:27;;;;;;;;;3.67;3.67;;;;;15.45;46.40;101365.41;4897927;29;8962;-78
2021/05/04 06:39:23;;;;;;;;;4.00;4.00;;;;;15.69;46.68;101359.03;4897012;29;9030;-78
2021/05/04 06:42:18;;;;;;;;;4.00;4.00;;;;;15.74;42.85;101372.75;4888528;29;9115;-77
2021/05/04 06:45:14;;;;;;;;;2.50;2.50;;;;;16.16;47.06;101350.13;4912992;29;9022;-77
2021/05/04 06:48:10;;;;;;;;;3.00;3.00;;;;;16.35;42.26;101361.50;4907681;29;8860;-77
2021/05/04 06:51:05;;;;;;;;;1.25;1.25;;;;;16.19;43.60;101365.38;4896774;29;9662;-77
2021/05/04 06:53:33;;;;;;;;;4.75;4.50;;;;;15.87;38.88;101356.00;4891344;29;8871;-76
2021/05/04 06:56:29;;;;;;;;;4.00;4.00;;;;;15.65;38.02;101362.91;4914627;29;8859;-77
2021/05/04 06:59:25;;;;;;;;;3.25;3.25;;;;;16.45;42.27;101365.75;4916428;29;8943;-79
2021/05/04 07:01:53;;;;;;;;;3.25;3.25;;;;;16.50;39.61;101368.31;4907114;29;9758;-78
2021/05/04 07:04:48;;;;;;;;;3.50;3.50;;;;;16.47;38.87;101365.41;4905806;29;8869;-77
2021/05/04 07:07:16;;;;;;;;;3.00;3.00;;;;;16.65;41.75;101364.75;4870400;29;8903;-78
2021/05/04 07:10:12;;;;;;;;;2.50;2.50;;;;;16.76;37.72;101367.06;4878546;29;8943;-76
2021/05/04 07:13:18;;;;;;;;;4.00;4.00;;;;;16.93;43.95;101363.94;4878137;29;8847;-77
2021/05/04 07:16:13;;;;;;;;;3.00;3.00;;;;;17.20;40.66;101367.84;4892995;29;8853;-77
2021/05/04 07:18:42;;;;;;;;;2.50;2.50;;;;;17.11;40.53;101370.03;4902453;29;8871;-77
2021/05/04 07:21:38;;;;;;;;;3.00;3.00;;;;;16.98;36.54;101365.66;4909970;29;8869;-78
2021/05/04 07:24:10;;;;;;;;;2.00;2.00;;;;;17.19;37.53;101369.03;4877458;29;8867;-77
2021/05/04 07:27:07;;;;;;;;;2.00;2.00;;;;;17.32;42.98;101364.97;4894100;29;8853;-78
2021/05/04 07:30:03;;;;;;;;;2.75;2.75;;;;;17.68;39.39;101369.47;4917791;29;8869;-78
2021/05/04 07:32:59;;;;;;;;;2.00;2.00;;;;;17.58;36.68;101366.41;4920187;29;8864;-79
2021/05/04 07:35:55;;;;;;;;;3.75;3.75;;;;;17.70;35.53;101372.72;4900155;29;8977;-77
2021/05/04 07:38:22;;;;;;;;;3.00;3.00;;;;;17.68;36.42;101363.88;5083932;23;9405;-81
2021/05/04 07:40:50;;;;;;;;;4.50;3.00;;;;;17.83;42.53;101372.63;4901126;29;8934;-80
2021/05/04 07:43:18;;;;;;;;;2.00;2.00;;;;;17.95;35.82;101383.72;4904534;29;8897;-80
2021/05/04 07:45:59;;;;;;;;;1.00;1.00;;;;;18.00;34.34;101380.63;4905358;29;9625;-80
2021/05/04 07:48:56;;;;;;;;;2.00;2.00;;;;;17.98;39.18;101378.19;4900430;29;8845;-80
2021/05/04 07:51:52;;;;;;;;;2.00;2.00;;;;;18.09;37.67;101381.22;4903232;29;8842;-79
2021/05/04 07:54:47;;;;;;;;;1.50;1.50;;;;;18.02;34.87;101379.09;4903379;29;8872;-80
2021/05/04 07:57:15;;;;;;;;;3.00;3.00;;;;;18.58;38.98;101375.91;4908873;29;8866;-79
2021/05/04 08:00:12;;;;;;;;;2.50;2.50;;;;;18.47;34.00;101385.25;4924510;29;8848;-79
2021/05/04 08:03:08;;;;;;;;;1.00;1.00;;;;;18.42;37.07;101382.78;4912636;29;8977;-79
2021/05/04 08:05:40;;;;;;;;;12.00;12.00;;;;;18.34;34.86;101379.00;4923919;29;9081;-79
2021/05/04 08:08:35;;;;;;;;;6.25;6.25;;;;;18.67;35.92;101388.91;4925280;29;8877;-79
2021/05/04 08:11:32;;;;;;;;;5.00;5.00;;;;;18.52;33.37;101384.97;4922755;29;8866;-79
2021/05/04 08:14:27;;;;;;;;;3.25;3.25;;;;;18.69;37.78;101378.94;4909193;29;8867;-73
2021/05/04 08:17:26;;;;;;;;;5.75;5.75;;;;;18.83;34.31;101376.44;4918964;29;8835;-77
2021/05/04 08:20:25;;;;;;;;;7.25;7.00;;;;;19.17;36.02;101382.28;4918168;29;8847;-77
2021/05/04 08:23:24;;;;;;;;;3.75;3.75;;;;;19.25;35.30;101380.44;4918342;29;8855;-77
2021/05/04 08:26:20;;;;;;;;;3.75;3.75;;;;;18.79;36.49;101377.56;4918238;29;8882;-78
2021/05/04 08:29:15;;;;;;;;;4.25;4.25;;;;;18.96;35.29;101379.88;4918269;29;8912;-78
2021/05/04 08:32:12;;;;;;;;;1.00;1.00;;;;;18.50;34.68;101368.53;4920527;29;8886;-77
2021/05/04 08:35:09;;;;;;;;;2.50;2.50;;;;;18.79;34.32;101369.97;4918292;29;8966;-77
2021/05/04 08:38:04;;;;;;;;;2.75;2.75;;;;;19.03;37.73;101365.19;4917127;29;8859;-76
2021/05/04 08:40:56;;;;;;;;;3.00;3.00;;;;;19.07;33.49;101366.88;4918164;29;8981;-77
2021/05/04 08:43:48;;;;;;;;;5.00;5.00;;;;;19.11;34.00;101372.56;4921737;29;8859;-78
2021/05/04 08:46:35;;;;;;;;;1.00;1.00;;;;;19.37;33.98;101357.78;4926010;29;8864;-76
2021/05/04 08:49:31;;;;;;;;;0.00;0.00;;;;;19.40;32.46;101368.28;4917203;29;8945;-78
2021/05/04 08:52:27;;;;;;;;;0.75;0.75;;;;;19.27;32.59;101364.03;4918280;29;8855;-78
2021/05/04 08:55:24;;;;;;;;;3.00;3.00;;;;;19.20;32.21;101364.72;4918040;29;8839;-78
2021/05/04 08:58:20;;;;;;;;;2.00;2.00;;;;;19.35;32.95;101357.34;4917603;29;8859;-78
2021/05/04 09:01:16;;;;;;;;;2.00;2.00;;;;;19.65;37.44;101351.88;4918972;29;8871;-79
2021/05/04 09:04:32;;;;;;;;;2.00;2.00;;;;;19.90;32.65;101360.66;4918880;29;8974;-78
2021/05/04 09:07:30;;;;;;;;;1.50;1.50;;;;;19.77;32.49;101356.44;4919388;29;8874;-79
2021/05/04 09:13:22;;;;;;;;;2.00;2.00;;;;;20.35;31.59;101347.66;4919004;29;8883;-77
2021/05/04 10:09:07;;;;;;;;;2.00;2.00;;;;;21.64;28.56;101325.31;5845377;23;8745;-71
2021/05/04 10:11:36;;;;;;;;;2.00;2.00;;;;;22.02;29.82;101332.38;4899529;29;8835;-71
2021/05/04 10:14:34;;;;;;;;;1.80;1.80;;;;;22.23;29.17;101340.16;4916007;29;8874;-71
2021/05/04 10:17:31;;;;;;;;;2.00;2.00;;;;;21.32;27.58;101348.38;4903526;29;8874;-71
2021/05/04 10:20:27;;;;;;;;;1.50;1.50;;;;;21.27;27.70;101337.47;4901518;29;9089;-71
2021/05/04 10:23:25;;;;;;;;;0.40;0.40;;;;;21.77;26.82;101332.19;4916113;29;8909;-72
2021/05/04 10:26:25;;;;;;;;;2.00;2.00;;;;;21.53;30.03;101330.03;4915896;29;8859;-72
2021/05/04 10:29:23;;;;;;;;;3.00;3.00;;;;;21.57;nan;101330.88;4896475;29;9604;-72
2021/05/04 10:32:49;;;;;;;;;2.25;2.25;;;;;21.98;27.45;101331.53;4901803;29;9400;-72
2021/05/04 10:35:46;;;;;;;;;2.00;2.00;;;;;21.33;26.72;101335.09;4913995;29;8859;-71
2021/05/04 10:39:01;;;;;;;;;1.00;1.00;;;;;21.78;28.48;101319.78;4915729;29;8887;-71
2021/05/04 10:42:00;;;;;;;;;3.25;3.25;;;;;22.19;29.07;101319.63;4910349;29;9563;-73
2021/05/04 10:44:56;;;;;;;;;3.75;3.75;;;;;21.99;28.12;101324.69;4924371;29;8865;-71
2021/05/04 10:48:00;;;;;;;;;2.00;2.00;;;;;22.05;29.89;101317.50;4934820;29;8868;-72
2021/05/04 10:50:57;;;;;;;;;2.20;2.00;;;;;22.08;29.67;101316.75;4928224;29;8855;-72
2021/05/04 10:53:53;;;;;;;;;1.80;1.80;;;;;22.45;27.41;101324.13;4911180;29;8859;-72
2021/05/04 10:56:59;;;;;;;;;6.00;6.00;;;;;21.23;26.21;101318.91;4889607;29;9562;-72
2021/05/04 10:59:54;;;;;;;;;3.25;3.25;;;;;21.52;26.89;101317.16;4881179;29;9594;-72
2021/05/04 11:02:50;;;;;;;;;4.00;4.00;;;;;21.78;28.19;101310.53;4896790;29;8968;-72
2021/05/04 11:05:46;;;;;;;;;3.25;3.25;;;;;21.62;25.90;101311.63;4906526;29;8948;-73
2021/05/04 11:08:44;;;;;;;;;1.00;1.00;;;;;22.27;25.63;101304.34;4915482;29;8855;-73
2021/05/04 11:11:43;;;;;;;;;1.80;1.80;;;;;22.51;28.97;101307.66;4915666;29;8855;-72
2021/05/04 11:14:39;;;;;;;;;1.80;1.80;;;;;22.51;25.99;101296.38;4915445;29;8985;-73
2021/05/04 11:17:42;;;;;;;;;1.60;1.60;;;;;22.42;25.20;101303.22;4909496;29;8864;-72
2021/05/04 11:20:38;;;;;;;;;3.75;3.75;;;;;21.90;26.17;101310.97;4904259;29;8867;-72
2021/05/04 11:24:13;;;;;;;;;3.00;3.00;;;;;22.14;27.75;101300.25;4915775;29;8894;-72
2021/05/04 11:27:08;;;;;;;;;2.80;2.80;;;;;22.56;27.25;101287.56;4902521;29;8922;-73
2021/05/04 11:30:05;;;;;;;;;3.80;2.60;;;;;22.18;25.35;101289.84;4915225;29;8894;-72
2021/05/04 11:32:39;;;;;;;;;2.20;2.20;;;;;21.99;28.25;101287.28;4899922;29;8915;-72
2021/05/04 11:35:09;;;;;;;;;4.25;4.25;;;;;21.74;27.93;101285.16;4899959;29;8859;-72
2021/05/04 11:38:19;;;;;;;;;4.00;4.00;;;;;21.58;28.17;101295.91;4915212;29;8875;-72
2021/05/04 11:41:14;;;;;;;;;3.00;3.00;;;;;21.40;28.48;101276.09;4902346;29;8879;-73
2021/05/04 11:43:48;;;;;;;;;2.25;2.25;;;;;22.01;27.99;101284.91;4916224;29;8855;-73
2021/05/04 11:46:43;;;;;;;;;7.75;6.75;;;;;21.60;28.51;101280.22;4915225;29;8884;-73
2021/05/04 11:49:39;;;;;;;;;5.00;5.00;;;;;21.68;28.69;101283.09;4915079;29;8867;-72
2021/05/04 11:52:09;;;;;;;;;5.25;5.25;;;;;22.07;28.63;101278.47;4899708;29;8883;-72
2021/05/04 11:55:18;;;;;;;;;2.75;2.75;;;;;22.00;26.25;101281.25;4902693;29;8879;-73
2021/05/04 11:58:03;;;;;;;;;5.00;5.00;;;;;21.84;27.45;101264.69;4909890;29;8855;-72
2021/05/04 12:01:06;;;;;;;;;6.75;6.75;;;;;21.03;27.21;101262.09;4874476;29;8868;-72
2021/05/04 12:04:01;;;;;;;;;5.50;5.00;;;;;21.01;28.43;101261.66;4896179;29;8892;-72
2021/05/04 12:06:57;;;;;;;;;5.00;5.00;;;;;21.26;29.22;101264.69;4896624;29;8877;-72
2021/05/04 12:09:52;;;;;;;;;8.75;7.25;;;;;20.78;28.22;101262.69;4895957;29;9669;-73
2021/05/04 12:12:20;;;;;;;;;3.00;3.00;;;;;20.95;32.85;101255.59;4897357;29;8892;-72
2021/05/04 12:15:24;;;;;;;;;3.75;3.75;;;;;20.73;28.22;101262.22;4886940;29;8873;-72
2021/05/04 12:18:24;;;;;;;;;4.00;4.00;;;;;20.97;27.93;101258.81;4905539;29;8859;-72
2021/05/04 12:21:20;;;;;;;;;3.50;3.50;;;;;21.15;32.99;101249.72;4899222;29;8869;-72
2021/05/04 12:24:22;;;;;;;;;7.00;7.00;;;;;20.96;29.50;101259.22;4906730;29;8868;-72
2021/05/04 12:27:18;;;;;;;;;5.25;5.25;;;;;20.72;27.88;101260.59;4913578;29;8881;-73
2021/05/04 12:30:19;;;;;;;;;8.50;8.50;;;;;20.92;27.96;101259.16;4917886;29;8863;-73
2021/05/04 12:32:48;;;;;;;;;9.50;9.50;;;;;20.86;27.99;101259.94;4919270;29;8851;-74
2021/05/04 12:35:52;;;;;;;;;10.25;10.25;;;;;20.50;28.53;101259.56;4905506;29;9053;-73
2021/05/04 12:38:51;;;;;;;;;5.75;5.00;;;;;20.45;27.65;101265.53;4917559;29;8851;-73
2021/05/04 12:41:48;;;;;;;;;5.50;5.50;;;;;20.21;29.36;101264.81;4911749;29;8863;-73
2021/05/04 12:44:44;;;;;;;;;3.50;3.50;;;;;20.22;29.12;101266.44;4917652;29;8911;-74
2021/05/04 12:47:16;;;;;;;;;3.25;3.25;;;;;20.85;29.48;101263.91;4918010;29;8855;-73
2021/05/04 12:50:35;;;;;;;;;3.25;3.25;;;;;21.78;26.96;101265.47;4918148;29;9617;-73
2021/05/04 12:53:33;;;;;;;;;4.00;4.00;;;;;22.19;26.77;101269.72;4917752;29;9656;-73
2021/05/04 12:56:32;;;;;;;;;4.00;4.00;;;;;21.47;27.10;101272.47;4917779;29;8859;-73
2021/05/04 12:59:32;;;;;;;;;3.25;3.25;;;;;21.19;28.82;101278.69;4917184;29;8977;-73
2021/05/04 13:02:05;;;;;;;;;3.00;3.00;;;;;20.86;26.00;101280.41;4915742;29;8914;-75
2021/05/04 13:05:04;;;;;;;;;3.00;3.00;;;;;20.97;27.30;101278.50;4917336;29;8890;-74
2021/05/04 13:08:03;;;;;;;;;3.00;3.00;;;;;21.31;28.00;101269.97;4901689;29;8862;-75
2021/05/04 13:10:43;;;;;;;;;4.00;4.00;;;;;;;;4917846;29;8862;-75
2021/05/04 13:30:02;;;;;;;;;4.25;4.25;;;;;20.69;28.08;101283.84;4916338;29;8843;-75
2021/05/04 13:32:49;;;;;;;;;3.75;3.75;;;;;20.41;28.07;101290.75;4899725;29;8962;-74
2021/05/04 13:35:23;;;;;;;;;4.00;4.00;;;;;20.49;28.79;101286.06;4910485;29;9570;-74
2021/05/04 13:47:32;;;;;;;;;2.50;2.50;;;;;20.07;27.71;101286.28;4910759;29;8883;-75
2021/05/04 13:50:15;;;;;;;;;4.00;4.00;;;;;20.26;28.14;101288.97;4917532;29;8937;-75
2021/05/04 13:52:43;;;;;;;;;5.00;5.00;;;;;20.50;29.93;101290.47;4897038;29;9681;-75
2021/05/04 13:55:39;;;;;;;;;5.25;5.25;;;;;20.35;29.80;101294.28;4916551;29;8859;-74
2021/05/04 13:58:21;;;;;;;;;2.75;2.75;;;;;20.35;29.39;101291.47;4917395;29;8871;-75
2021/05/04 14:27:44;;;;;;;;;4.00;4.00;;;;;19.56;30.83;101298.81;4907430;29;8882;-75
2021/05/04 14:30:28;;;;;;;;;4.50;4.50;;;;;19.54;32.70;101300.34;4916754;29;9609;-75
2021/05/04 14:32:56;;;;;;;;;4.00;4.00;;;;;19.33;31.47;101301.66;4876728;29;8843;-75
2021/05/04 14:53:40;;;;;;;;;2.75;2.75;;;;;19.00;31.06;101295.84;4919651;29;8901;-75
2021/05/04 14:59:30;;;;;;;;;6.50;6.50;;;;;19.14;31.64;101294.09;4916526;29;8952;-75
2021/05/04 15:02:20;;;;;;;;;5.25;5.25;;;;;18.93;30.03;101285.31;4915673;29;8859;-76
2021/05/04 15:05:17;;;;;;;;;5.75;5.75;;;;;18.84;30.69;101285.56;4915309;29;8882;-75
2021/05/04 15:08:13;;;;;;;;;6.00;6.00;;;;;18.83;31.72;101283.97;4916512;29;8872;-75
2021/05/04 15:11:09;;;;;;;;;4.25;4.25;;;;;18.83;31.24;101278.34;4921249;29;8919;-76
2021/05/04 15:14:11;;;;;;;;;5.25;5.25;;;;;18.85;33.66;101270.38;4909634;29;8884;-75
2021/05/04 15:16:50;;;;;;;;;5.75;5.75;;;;;18.51;34.04;101283.34;4909663;29;8876;-75
2021/05/04 15:22:43;;;;;;;;;3.00;3.00;;;;;18.41;32.79;101272.75;4924847;29;8887;-75
2021/05/04 15:25:39;;;;;;;;;5.00;5.00;;;;;18.41;32.32;101281.13;4902439;29;8882;-75
2021/05/04 15:28:07;;;;;;;;;5.00;5.00;;;;;18.42;32.40;101282.75;4912999;29;8871;-75
2021/05/04 15:31:02;;;;;;;;;4.50;4.50;;;;;18.22;30.99;101281.13;4913231;29;8859;-76
2021/05/04 15:33:58;;;;;;;;;5.50;5.50;;;;;18.28;32.39;101286.06;4916131;29;8939;-76
2021/05/04 15:36:26;;;;;;;;;4.25;4.25;;;;;18.23;32.42;101280.75;4915889;29;8882;-75